Time;durP1;ratioP1;P1;durP2;ratioP2;P2;SDS_P1;SDS_P2;PMS_P1;PMS_P2;Temp;Humidity;BMP_temperature;BMP_pressure;BME280_temperature;BME280_humidity;BME280_pressure;Samples;Min_cycle;Max_cycle;Signal;HPM_P1;HPM_P2
2023/01/08 00:00:48;;;;;;;6.67;2.80;;;16.50;59.60;;;;;;5061060;28;20337;-68
2023/01/08 00:03:14;;;;;;;6.88;3.25;;;16.60;59.50;;;;;;5060963;28;20029;-67
2023/01/08 00:05:41;;;;;;;5.45;2.95;;;16.70;59.40;;;;;;5060867;28;20048;-67
2023/01/08 00:08:07;;;;;;;10.60;3.40;;;16.80;59.20;;;;;;5060800;28;20043;-69
2023/01/08 00:10:34;;;;;;;4.68;2.97;;;16.80;58.90;;;;;;5060851;28;20012;-67
2023/01/08 00:13:00;;;;;;;5.20;2.88;;;16.90;58.80;;;;;;5060906;28;20116;-67
2023/01/08 00:15:27;;;;;;;4.05;2.90;;;16.90;58.70;;;;;;5060825;28;20240;-66
2023/01/08 00:17:53;;;;;;;4.55;2.95;;;16.80;58.60;;;;;;5060774;28;20216;-68
2023/01/08 00:20:18;;;;;;;9.13;3.25;;;16.80;58.80;;;;;;5060810;28;20037;-66
2023/01/08 00:22:48;;;;;;;7.80;3.20;;;16.80;58.90;;;;;;5060767;28;20048;-69
2023/01/08 00:25:13;;;;;;;6.00;2.80;;;16.70;58.90;;;;;;5060823;28;20017;-67
2023/01/08 00:27:39;;;;;;;6.28;3.47;;;16.70;59.00;;;;;;5060564;28;20121;-68
2023/01/08 00:30:08;;;;;;;4.95;3.35;;;16.60;59.10;;;;;;5060579;28;20028;-67
2023/01/08 00:32:34;;;;;;;;;;;16.60;59.20;;;;;;5061105;28;20136;-67
2023/01/08 00:35:00;;;;;;;5.55;3.05;;;16.50;59.20;;;;;;5060655;28;20197;-68
2023/01/08 00:37:27;;;;;;;6.53;3.30;;;16.50;59.30;;;;;;5060590;28;20020;-67
2023/01/08 00:39:53;;;;;;;6.32;3.35;;;16.50;59.30;;;;;;5060522;28;20210;-68
2023/01/08 00:42:19;;;;;;;6.28;3.38;;;16.50;60.00;;;;;;5060650;28;20035;-68
2023/01/08 00:44:44;;;;;;;6.57;3.53;;;16.40;59.30;;;;;;5060583;28;20025;-66
2023/01/08 00:47:14;;;;;;;5.13;2.78;;;16.40;59.40;;;;;;5061024;28;20051;-68
2023/01/08 00:49:40;;;;;;;9.05;3.08;;;16.40;59.40;;;;;;5064078;28;20042;-68
2023/01/08 00:52:05;;;;;;;4.03;2.92;;;16.40;59.50;;;;;;5064108;28;20056;-68
2023/01/08 00:54:31;;;;;;;10.65;3.47;;;16.40;59.60;;;;;;5064016;28;20020;-68
2023/01/08 00:56:57;;;;;;;4.40;3.15;;;16.40;59.60;;;;;;5063973;28;20032;-68
2023/01/08 00:59:23;;;;;;;6.78;3.58;;;16.40;59.60;;;;;;5063922;28;20049;-68
2023/01/08 01:01:49;;;;;;;5.60;3.00;;;16.30;59.50;;;;;;5063922;28;20029;-69
2023/01/08 01:04:15;;;;;;;6.90;3.05;;;16.30;59.60;;;;;;5063906;28;20025;-68
2023/01/08 01:06:41;;;;;;;4.93;2.70;;;16.30;59.60;;;;;;5063825;28;20217;-70
2023/01/08 01:09:08;;;;;;;4.65;2.88;;;16.30;59.60;;;;;;5063762;28;20321;-68
2023/01/08 01:11:34;;;;;;;4.47;2.67;;;16.30;59.60;;;;;;5063710;28;20035;-68
2023/01/08 01:14:00;;;;;;;5.43;2.70;;;16.30;59.60;;;;;;5063662;28;20368;-68
2023/01/08 01:16:26;;;;;;;6.20;3.20;;;16.30;59.70;;;;;;5063656;28;20036;-68
2023/01/08 01:18:53;;;;;;;6.28;3.30;;;16.40;59.60;;;;;;5063645;28;20024;-68
2023/01/08 01:21:27;;;;;;;10.32;2.78;;;16.50;59.50;;;;;;5063490;28;20043;-68
2023/01/08 01:23:56;;;;;;;6.03;3.03;;;16.60;59.20;;;;;;5063518;28;20074;-69
2023/01/08 01:26:23;;;;;;;6.20;3.08;;;16.70;59.10;;;;;;5063470;28;20021;-69
2023/01/08 01:28:51;;;;;;;7.72;3.55;;;16.70;58.80;;;;;;5063213;28;20049;-70
2023/01/08 01:31:17;;;;;;;7.13;3.77;;;16.80;58.70;;;;;;5063415;28;20032;-69
2023/01/08 01:33:44;;;;;;;6.53;2.78;;;16.80;58.50;;;;;;5063200;28;20029;-69
2023/01/08 01:36:12;;;;;;;3.70;2.70;;;16.80;58.40;;;;;;5063247;28;20040;-68
2023/01/08 01:38:41;;;;;;;4.88;3.15;;;16.80;58.30;;;;;;5063157;28;20025;-67
2023/01/08 01:41:06;;;;;;;6.43;3.28;;;16.90;58.30;;;;;;5063105;28;20029;-69
2023/01/08 01:43:40;;;;;;;7.75;3.15;;;16.80;58.20;;;;;;5063053;28;20032;-67
2023/01/08 01:46:18;;;;;;;7.28;4.00;;;16.80;58.30;;;;;;5063046;28;20025;-67
2023/01/08 01:48:45;;;;;;;7.13;2.80;;;16.80;58.40;;;;;;5062986;28;20025;-68
2023/01/08 01:51:11;;;;;;;6.85;3.00;;;16.70;58.50;;;;;;5062906;28;20228;-67
2023/01/08 01:53:37;;;;;;;4.75;3.03;;;16.60;58.60;;;;;;5062934;28;20028;-67
2023/01/08 01:56:04;;;;;;;5.47;3.42;;;16.60;58.70;;;;;;5062883;28;20208;-67
2023/01/08 01:58:31;;;;;;;5.55;3.28;;;16.50;58.80;;;;;;5060999;28;20260;-67
2023/01/08 02:01:06;;;;;;;5.03;3.17;;;16.50;58.90;;;;;;5062404;28;20100;-69
2023/01/08 02:03:39;;;;;;;5.57;2.88;;;16.50;59.00;;;;;;5062802;28;20029;-68
2023/01/08 02:06:34;;;;;;;6.88;3.63;;;16.40;59.60;;;;;;5062648;28;20139;-68
2023/01/08 02:09:09;;;;;;;6.90;2.83;;;16.40;59.10;;;;;;5062473;28;20040;-67
2023/01/08 02:14:56;;;;;;;6.20;2.83;;;16.40;59.20;;;;;;5062395;28;20035;-68
2023/01/08 02:17:56;;;;;;;4.85;2.85;;;16.40;59.30;;;;;;5062381;28;20098;-68
2023/01/08 02:20:39;;;;;;;4.05;2.75;;;16.30;59.30;;;;;;5062327;28;20025;-67
2023/01/08 02:23:19;;;;;;;7.07;2.92;;;16.30;59.40;;;;;;5062262;28;20021;-69
2023/01/08 02:26:20;;;;;;;4.55;2.95;;;16.30;59.50;;;;;;5062128;28;20363;-68
2023/01/08 02:28:46;;;;;;;4.45;3.00;;;16.30;59.50;;;;;;5061943;28;20056;-67
2023/01/08 02:31:13;;;;;;;6.78;3.90;;;16.30;59.50;;;;;;5062138;28;20021;-66
2023/01/08 02:33:39;;;;;;;5.10;2.83;;;16.30;59.50;;;;;;5062157;28;20090;-68
2023/01/08 02:36:27;;;;;;;6.78;2.90;;;16.30;59.50;;;;;;5062095;28;20025;-68
2023/01/08 02:39:35;;;;;;;5.90;3.57;;;16.30;59.60;;;;;;5061951;28;20052;-70
2023/01/08 02:42:31;;;;;;;6.38;2.80;;;16.30;59.60;;;;;;5061984;28;20324;-70
2023/01/08 02:45:08;;;;;;;5.53;2.72;;;16.30;59.60;;;;;;5061921;28;20035;-67
2023/01/08 02:48:01;;;;;;;7.53;2.90;;;16.30;59.60;;;;;;5061893;28;20021;-67
2023/01/08 02:50:50;;;;;;;6.50;3.15;;;16.30;59.60;;;;;;5061476;28;20064;-69
2023/01/08 02:53:23;;;;;;;7.13;3.08;;;16.30;59.60;;;;;;5061781;28;20040;-68
2023/01/08 02:55:54;;;;;;;4.50;3.03;;;16.40;59.50;;;;;;5061672;28;20020;-69
2023/01/08 02:58:22;;;;;;;4.78;3.13;;;16.50;59.40;;;;;;5061638;28;20059;-67
2023/01/08 03:00:48;;;;;;;4.80;2.67;;;16.60;59.10;;;;;;5061589;28;20016;-68
2023/01/08 03:03:33;;;;;;;6.35;2.80;;;16.70;59.00;;;;;;5061498;28;20017;-68
2023/01/08 03:06:06;;;;;;;5.50;3.47;;;16.80;58.70;;;;;;5061479;28;20243;-68
2023/01/08 03:08:39;;;;;;;5.50;3.47;;;16.80;58.60;;;;;;5061417;28;20013;-67
2023/01/08 03:11:11;;;;;;;6.32;3.17;;;16.80;58.40;;;;;;5061123;28;20042;-68
2023/01/08 03:13:53;;;;;;;6.78;3.30;;;16.80;58.30;;;;;;5061397;28;20082;-68
2023/01/08 03:16:33;;;;;;;4.65;2.85;;;16.90;58.30;;;;;;5061354;28;20021;-67
2023/01/08 03:19:08;;;;;;;5.13;3.25;;;16.90;58.30;;;;;;5061391;28;20029;-67
2023/01/08 03:21:36;;;;;;;2.83;2.40;;;16.80;58.20;;;;;;5061344;28;20031;-67
2023/01/08 03:24:03;;;;;;;4.68;3.05;;;16.80;58.40;;;;;;5061298;28;20074;-68
2023/01/08 03:26:31;;;;;;;6.57;3.30;;;16.70;58.40;;;;;;5061508;28;20053;-67
2023/01/08 03:28:58;;;;;;;6.40;2.67;;;16.70;58.60;;;;;;5060992;28;20124;-67
2023/01/08 03:31:27;;;;;;;3.97;3.22;;;16.60;58.60;;;;;;5060859;28;20072;-67
2023/01/08 03:33:54;;;;;;;4.28;2.35;;;16.60;58.80;;;;;;5061152;28;20024;-68
2023/01/08 03:36:27;;;;;;;4.05;2.42;;;16.60;58.90;;;;;;5061113;28;20220;-67
2023/01/08 03:39:00;;;;;;;7.15;3.67;;;16.50;59.50;;;;;;5061128;28;20021;-68
2023/01/08 03:41:30;;;;;;;4.25;2.78;;;16.50;59.00;;;;;;5061091;28;20312;-68
2023/01/08 03:43:56;;;;;;;7.68;3.17;;;16.40;59.00;;;;;;5060984;28;20020;-68
2023/01/08 03:46:31;;;;;;;4.30;2.90;;;16.50;59.10;;;;;;5060990;28;20033;-68
2023/01/08 03:48:58;;;;;;;4.97;3.00;;;16.40;59.20;;;;;;5060877;28;20602;-67
2023/01/08 03:51:24;;;;;;;7.78;3.25;;;16.40;59.30;;;;;;5061018;28;20052;-68
2023/01/08 03:53:55;;;;;;;4.75;2.97;;;16.30;59.30;;;;;;5060941;28;20021;-68
2023/01/08 03:56:21;;;;;;;6.63;2.50;;;16.30;59.30;;;;;;5061008;28;20027;-67
2023/01/08 03:58:47;;;;;;;6.22;3.08;;;16.30;59.30;;;;;;5060973;28;20029;-67
2023/01/08 04:01:13;;;;;;;4.45;3.35;;;16.30;59.40;;;;;;5060922;28;20035;-68
2023/01/08 04:03:38;;;;;;;3.17;2.58;;;16.30;59.30;;;;;;5059709;28;20024;-68
2023/01/08 04:06:04;;;;;;;3.83;2.90;;;16.30;59.40;;;;;;5060808;28;20055;-68
2023/01/08 04:08:30;;;;;;;4.25;2.80;;;16.20;59.50;;;;;;5060809;28;20021;-68
2023/01/08 04:10:56;;;;;;;6.90;3.47;;;16.30;59.50;;;;;;5060842;28;20020;-67
2023/01/08 04:13:22;;;;;;;5.25;2.90;;;16.30;59.50;;;;;;5060750;28;20028;-69
2023/01/08 04:15:49;;;;;;;3.55;2.65;;;16.40;59.50;;;;;;5059407;28;20025;-68
2023/01/08 04:18:16;;;;;;;5.43;2.95;;;16.50;59.40;;;;;;5060755;28;20029;-67
2023/01/08 04:20:46;;;;;;;4.38;2.65;;;16.50;59.10;;;;;;5060701;28;20024;-67
2023/01/08 04:23:12;;;;;;;4.82;3.17;;;16.70;59.00;;;;;;5062804;28;20008;-68
2023/01/08 04:25:38;;;;;;;3.92;3.10;;;16.70;58.90;;;;;;5064497;28;20119;-68
2023/01/08 04:28:06;;;;;;;4.60;2.72;;;16.80;58.70;;;;;;5064240;28;20340;-68
2023/01/08 04:30:32;;;;;;;5.38;3.08;;;16.80;58.60;;;;;;5063220;28;20021;-67
2023/01/08 04:32:58;;;;;;;5.40;3.00;;;16.80;58.50;;;;;;5064407;28;20581;-68
2023/01/08 04:35:23;;;;;;;4.70;2.65;;;16.80;58.50;;;;;;5064277;28;20029;-67
2023/01/08 04:37:49;;;;;;;5.32;3.08;;;16.70;58.50;;;;;;5064364;28;20290;-68
2023/01/08 04:40:15;;;;;;;6.10;2.95;;;16.70;58.60;;;;;;5064255;28;20036;-67
2023/01/08 04:42:41;;;;;;;4.18;3.00;;;16.70;58.70;;;;;;5064250;28;20033;-67
2023/01/08 04:45:07;;;;;;;4.10;2.60;;;16.70;58.80;;;;;;5064173;28;20024;-68
2023/01/08 04:47:33;;;;;;;4.32;2.50;;;16.60;58.80;;;;;;5062946;28;20029;-68
2023/01/08 04:49:58;;;;;;;4.22;2.70;;;16.60;58.90;;;;;;5064089;28;20039;-69
2023/01/08 04:52:24;;;;;;;6.00;3.38;;;16.50;58.90;;;;;;5064064;28;20021;-67
2023/01/08 04:54:50;;;;;;;6.57;3.60;;;16.50;59.00;;;;;;5063963;28;20495;-68
2023/01/08 04:57:16;;;;;;;3.58;2.70;;;16.40;59.00;;;;;;5063975;28;20016;-69
2023/01/08 04:59:41;;;;;;;3.88;3.00;;;16.50;59.20;;;;;;5063946;28;20029;-67
2023/01/08 05:02:07;;;;;;;4.90;2.97;;;16.40;59.20;;;;;;5063847;28;20251;-67
2023/01/08 05:04:33;;;;;;;3.97;2.90;;;16.40;59.20;;;;;;5062577;28;20029;-68
2023/01/08 05:06:59;;;;;;;6.32;3.17;;;16.40;59.30;;;;;;5063793;28;20032;-68
2023/01/08 05:09:25;;;;;;;6.80;3.28;;;16.30;59.20;;;;;;5063711;28;20021;-67
2023/01/08 05:11:51;;;;;;;5.30;3.05;;;16.40;59.30;;;;;;5063694;28;20025;-67
2023/01/08 05:14:16;;;;;;;3.83;2.75;;;16.30;59.30;;;;;;5063684;28;20055;-67
2023/01/08 05:16:42;;;;;;;4.78;3.10;;;16.30;59.30;;;;;;5063625;28;20299;-67
2023/01/08 05:19:08;;;;;;;5.05;3.05;;;16.30;59.40;;;;;;5063594;28;20028;-67
2023/01/08 05:21:34;;;;;;;5.30;3.25;;;16.30;59.40;;;;;;5063525;28;20037;-67
2023/01/08 05:24:00;;;;;;;4.13;2.53;;;16.30;59.40;;;;;;5063447;28;20056;-67
2023/01/08 05:26:26;;;;;;;3.58;2.75;;;16.20;59.40;;;;;;5063495;28;20032;-67
2023/01/08 05:28:51;;;;;;;4.25;2.85;;;16.20;59.50;;;;;;5063213;28;20305;-69
2023/01/08 05:31:17;;;;;;;3.38;2.47;;;16.30;59.50;;;;;;5063458;28;20083;-68
2023/01/08 05:33:43;;;;;;;4.40;2.70;;;16.40;59.40;;;;;;5063305;28;20024;-68
2023/01/08 05:36:11;;;;;;;3.95;3.03;;;16.50;59.20;;;;;;5063229;28;20040;-68
2023/01/08 05:38:37;;;;;;;5.60;2.58;;;16.60;58.90;;;;;;5063308;28;20245;-68
2023/01/08 05:41:04;;;;;;;3.90;2.55;;;16.70;58.80;;;;;;5063193;28;20043;-68
2023/01/08 05:43:30;;;;;;;5.60;3.10;;;16.70;58.60;;;;;;5063195;28;20056;-69
2023/01/08 05:45:59;;;;;;;5.57;2.88;;;16.80;58.50;;;;;;5063088;28;20028;-68
2023/01/08 05:48:27;;;;;;;3.60;2.53;;;16.80;58.30;;;;;;5062886;28;20072;-68
2023/01/08 05:50:53;;;;;;;5.22;2.75;;;16.80;58.30;;;;;;5062942;28;20032;-68
2023/01/08 05:53:19;;;;;;;5.07;3.33;;;16.80;58.20;;;;;;5062948;28;20020;-67
2023/01/08 05:55:45;;;;;;;6.10;3.38;;;16.80;58.10;;;;;;5062823;28;20032;-69
2023/01/08 05:58:11;;;;;;;3.58;2.67;;;16.80;58.00;;;;;;5062804;28;20029;-69
2023/01/08 06:00:37;;;;;;;3.78;2.83;;;16.80;58.10;;;;;;5062724;28;20354;-67
2023/01/08 06:03:03;;;;;;;4.03;2.63;;;16.80;58.10;;;;;;5062703;28;20119;-68
2023/01/08 06:05:30;;;;;;;4.38;2.83;;;16.70;58.10;;;;;;5062738;28;20016;-67
2023/01/08 06:07:57;;;;;;;4.65;3.25;;;16.70;58.20;;;;;;5062691;28;20021;-67
2023/01/08 06:10:23;;;;;;;4.00;2.70;;;16.70;58.40;;;;;;5062519;28;20023;-67
2023/01/08 06:12:49;;;;;;;3.85;2.72;;;16.60;58.50;;;;;;5062607;28;20021;-69
2023/01/08 06:15:15;;;;;;;3.65;2.72;;;16.50;58.60;;;;;;5062569;28;20088;-69
2023/01/08 06:17:41;;;;;;;4.53;2.80;;;16.50;58.70;;;;;;5062511;28;20250;-68
2023/01/08 06:20:07;;;;;;;4.10;3.08;;;16.50;58.80;;;;;;5062461;28;20044;-68
2023/01/08 06:22:34;;;;;;;4.15;3.08;;;16.40;58.80;;;;;;5062374;28;20095;-68
2023/01/08 06:25:00;;;;;;;4.15;2.85;;;16.40;58.90;;;;;;5062373;28;20044;-67
2023/01/08 06:27:26;;;;;;;4.05;2.60;;;16.40;59.00;;;;;;5062102;28;20083;-69
2023/01/08 06:29:52;;;;;;;4.85;3.25;;;16.30;59.00;;;;;;5062206;28;20021;-67
2023/01/08 06:32:17;;;;;;;4.05;2.95;;;16.40;59.20;;;;;;5062142;28;20033;-67
2023/01/08 06:34:43;;;;;;;3.90;2.67;;;16.30;59.10;;;;;;5060863;28;20025;-68
2023/01/08 06:37:09;;;;;;;3.80;2.80;;;16.30;59.20;;;;;;5061982;28;20317;-68
2023/01/08 06:39:35;;;;;;;4.82;3.00;;;16.30;59.90;;;;;;5062009;28;20067;-67
2023/01/08 06:42:01;;;;;;;4.35;2.88;;;16.30;59.30;;;;;;5061934;28;20032;-68
2023/01/08 06:44:27;;;;;;;3.78;2.67;;;16.30;59.40;;;;;;5061747;28;20021;-68
2023/01/08 06:46:53;;;;;;;4.57;2.80;;;16.30;59.40;;;;;;5061443;28;20039;-68
2023/01/08 06:49:19;;;;;;;4.60;2.72;;;16.30;59.40;;;;;;5061749;28;20260;-69
2023/01/08 06:51:45;;;;;;;6.70;3.25;;;16.30;59.40;;;;;;5061755;28;20013;-71
2023/01/08 06:54:11;;;;;;;2.97;2.05;;;16.30;59.40;;;;;;5061776;28;20204;-69
2023/01/08 06:56:36;;;;;;;4.72;3.20;;;16.30;59.40;;;;;;5061926;28;20268;-69
2023/01/08 06:59:02;;;;;;;4.10;2.65;;;16.30;59.40;;;;;;5061698;28;20309;-67
2023/01/08 07:01:28;;;;;;;5.15;2.78;;;16.30;59.40;;;;;;5061671;28;20056;-67
2023/01/08 07:03:54;;;;;;;5.43;2.85;;;16.30;59.50;;;;;;5061742;28;20034;-69
2023/01/08 07:06:22;;;;;;;4.53;3.00;;;16.30;59.40;;;;;;5061680;28;20063;-67
2023/01/08 07:08:48;;;;;;;4.13;3.13;;;16.40;59.20;;;;;;5061514;28;20058;-68
2023/01/08 07:11:15;;;;;;;5.13;3.25;;;16.60;59.00;;;;;;5061505;28;20035;-68
2023/01/08 07:13:43;;;;;;;4.57;3.08;;;16.60;58.70;;;;;;5061481;28;20035;-67
2023/01/08 07:16:12;;;;;;;6.00;3.05;;;16.70;58.40;;;;;;5061423;28;20080;-68
2023/01/08 07:18:37;;;;;;;3.80;3.22;;;16.80;58.40;;;;;;5061413;28;20332;-67
2023/01/08 07:21:05;;;;;;;7.22;2.80;;;16.80;58.30;;;;;;5061384;28;20111;-67
2023/01/08 07:23:31;;;;;;;4.05;2.95;;;16.80;58.10;;;;;;5061317;28;20020;-68
2023/01/08 07:26:05;;;;;;;4.57;2.60;;;16.80;58.10;;;;;;5061299;28;20406;-68
2023/01/08 07:28:31;;;;;;;4.20;3.00;;;16.80;58.10;;;;;;5060999;28;20279;-68
2023/01/08 07:30:57;;;;;;;3.95;2.83;;;16.80;58.10;;;;;;5061231;28;20052;-68
2023/01/08 07:33:22;;;;;;;4.22;2.53;;;16.80;58.20;;;;;;5061190;28;20032;-68
2023/01/08 07:35:53;;;;;;;3.90;2.90;;;16.70;58.20;;;;;;5061183;28;20013;-67
2023/01/08 07:38:19;;;;;;;4.75;2.95;;;16.70;58.40;;;;;;5061158;28;20047;-68
2023/01/08 07:40:45;;;;;;;4.47;2.90;;;16.60;58.40;;;;;;5061125;28;20025;-69
2023/01/08 07:43:13;;;;;;;3.40;2.72;;;16.60;58.50;;;;;;5061142;28;20032;-68
2023/01/08 07:45:39;;;;;;;;;;;16.60;58.60;;;;;;5061572;28;20028;-67
2023/01/08 07:48:05;;;;;;;4.60;3.10;;;16.50;58.60;;;;;;5061054;28;19908;-67
2023/01/08 07:50:31;;;;;;;3.58;2.65;;;16.50;58.70;;;;;;5061031;28;20036;-67
2023/01/08 07:53:01;;;;;;;3.55;2.80;;;16.40;58.70;;;;;;5060874;28;20043;-69
2023/01/08 07:55:28;;;;;;;4.35;2.70;;;16.40;58.80;;;;;;5061004;28;20025;-69
2023/01/08 07:57:54;;;;;;;5.47;2.72;;;16.40;58.80;;;;;;5062762;28;20084;-67
2023/01/08 08:00:21;;;;;;;4.70;3.13;;;16.40;58.90;;;;;;5065019;28;20033;-68
2023/01/08 08:02:47;;;;;;;3.80;3.00;;;16.40;58.90;;;;;;5064841;28;20045;-68
2023/01/08 08:05:13;;;;;;;3.90;2.88;;;16.30;58.90;;;;;;5064967;28;20037;-68
2023/01/08 08:07:39;;;;;;;5.25;2.97;;;16.30;58.90;;;;;;5064900;28;20021;-68
2023/01/08 08:10:07;;;;;;;3.90;2.85;;;16.30;59.00;;;;;;5064650;28;20041;-69
2023/01/08 08:12:33;;;;;;;5.05;3.10;;;16.30;59.00;;;;;;5064866;28;20219;-69
2023/01/08 08:14:59;;;;;;;5.00;3.50;;;16.30;59.10;;;;;;5064686;28;20032;-68
2023/01/08 08:17:25;;;;;;;3.25;2.78;;;16.30;59.70;;;;;;5064698;28;20092;-68
2023/01/08 08:19:51;;;;;;;5.05;3.17;;;16.30;59.10;;;;;;5064702;28;20029;-68
2023/01/08 08:22:17;;;;;;;4.00;3.13;;;16.30;59.10;;;;;;5064669;28;20365;-67
2023/01/08 08:24:45;;;;;;;5.07;2.70;;;16.40;59.00;;;;;;5064615;28;20040;-68
2023/01/08 08:27:11;;;;;;;4.82;2.90;;;16.50;58.90;;;;;;5064433;28;20404;-68
2023/01/08 08:29:37;;;;;;;3.38;2.80;;;16.60;58.70;;;;;;5064458;28;20033;-68
2023/01/08 08:32:03;;;;;;;4.55;2.67;;;16.70;58.60;;;;;;5064470;28;20067;-68
2023/01/08 08:34:31;;;;;;;4.07;3.13;;;16.70;58.30;;;;;;5064338;28;20052;-68
2023/01/08 08:36:57;;;;;;;3.60;2.63;;;16.80;58.20;;;;;;5064328;28;20059;-69
2023/01/08 08:39:23;;;;;;;3.20;2.83;;;16.80;58.10;;;;;;5064195;28;20032;-68
2023/01/08 08:41:48;;;;;;;5.20;2.92;;;16.90;58.00;;;;;;5064256;28;20336;-68
2023/01/08 08:44:14;;;;;;;3.65;2.45;;;16.80;57.90;;;;;;5064192;28;20052;-68
2023/01/08 08:46:40;;;;;;;3.78;2.90;;;16.80;57.90;;;;;;5064137;28;20347;-68
2023/01/08 08:49:06;;;;;;;3.80;3.00;;;16.80;57.90;;;;;;5064050;28;20032;-68
2023/01/08 08:51:32;;;;;;;4.00;3.05;;;16.80;58.00;;;;;;5064104;28;20032;-68
2023/01/08 08:53:57;;;;;;;4.97;3.00;;;16.70;58.10;;;;;;5064070;28;20056;-67
2023/01/08 08:56:23;;;;;;;4.00;3.03;;;16.70;58.20;;;;;;5064070;28;20025;-70
2023/01/08 08:58:56;;;;;;;3.78;2.80;;;16.70;58.30;;;;;;5063859;28;20032;-68
2023/01/08 09:01:22;;;;;;;4.25;2.97;;;16.60;58.30;;;;;;5062628;28;20208;-68
2023/01/08 09:03:48;;;;;;;4.18;3.33;;;16.60;58.40;;;;;;5063892;28;20024;-67
2023/01/08 09:06:14;;;;;;;5.03;2.83;;;16.60;58.40;;;;;;5063891;28;20035;-68
2023/01/08 09:08:40;;;;;;;4.07;2.55;;;16.50;58.50;;;;;;5063246;28;20025;-68
2023/01/08 09:11:06;;;;;;;3.65;2.75;;;16.50;58.50;;;;;;5063821;28;20092;-67
2023/01/08 09:13:32;;;;;;;4.20;2.55;;;16.50;58.60;;;;;;5063726;28;20051;-69
2023/01/08 09:15:58;;;;;;;5.22;2.88;;;16.50;58.60;;;;;;5063700;28;20031;-68
2023/01/08 09:18:24;;;;;;;4.25;2.95;;;16.50;58.60;;;;;;5063609;28;20193;-68
2023/01/08 09:20:50;;;;;;;4.57;2.80;;;16.50;58.60;;;;;;5063616;28;20095;-69
2023/01/08 09:23:15;;;;;;;3.50;2.97;;;16.50;58.60;;;;;;5063537;28;20036;-67
2023/01/08 09:25:41;;;;;;;4.10;2.75;;;16.50;58.60;;;;;;5063389;28;20025;-68
2023/01/08 09:28:11;;;;;;;3.92;2.88;;;16.50;58.50;;;;;;5063236;28;20052;-68
2023/01/08 09:30:37;;;;;;;3.00;2.70;;;16.50;58.60;;;;;;5063379;28;20028;-68
2023/01/08 09:33:04;;;;;;;3.42;2.55;;;16.50;58.60;;;;;;5063288;28;20079;-67
2023/01/08 09:35:33;;;;;;;2.97;2.67;;;16.50;58.60;;;;;;5063254;28;20029;-68
2023/01/08 09:37:59;;;;;;;3.90;3.25;;;16.40;58.50;;;;;;5063291;28;20025;-68
2023/01/08 09:40:31;;;;;;;4.57;2.95;;;16.50;58.60;;;;;;5063253;28;20371;-67
2023/01/08 09:43:00;;;;;;;4.35;2.97;;;16.50;58.60;;;;;;5063268;28;20047;-67
2023/01/08 09:45:34;;;;;;;3.25;2.78;;;16.60;58.40;;;;;;5063167;28;20096;-68
2023/01/08 09:48:04;;;;;;;3.50;2.60;;;16.70;58.20;;;;;;5063046;28;20051;-68
2023/01/08 09:50:31;;;;;;;4.63;3.08;;;16.70;58.10;;;;;;5063070;28;20064;-68
2023/01/08 09:52:59;;;;;;;3.60;2.85;;;16.70;58.00;;;;;;5063013;28;20020;-68
2023/01/08 09:55:28;;;;;;;4.18;2.80;;;16.70;57.80;;;;;;5062958;28;20025;-70
2023/01/08 09:57:54;;;;;;;3.72;2.95;;;16.80;57.80;;;;;;5062904;28;20013;-68
2023/01/08 10:00:28;;;;;;;3.53;2.88;;;16.80;57.80;;;;;;5062823;28;20209;-68
2023/01/08 10:02:54;;;;;;;3.45;2.85;;;16.80;57.70;;;;;;5062833;28;20047;-67
2023/01/08 10:05:20;;;;;;;2.92;2.20;;;16.80;57.60;;;;;;5062631;28;20032;-69
2023/01/08 10:07:46;;;;;;;3.70;3.22;;;16.90;57.50;;;;;;5062692;28;20029;-67
2023/01/08 10:10:22;;;;;;;4.38;3.15;;;16.90;57.40;;;;;;5062899;28;20040;-67
2023/01/08 10:12:57;;;;;;;4.20;3.20;;;16.90;57.30;;;;;;5063010;28;20017;-68
2023/01/08 10:15:23;;;;;;;4.10;2.83;;;16.90;57.30;;;;;;5063013;28;20312;-68
2023/01/08 10:18:01;;;;;;;3.30;2.50;;;16.90;57.30;;;;;;5062564;28;20063;-68
2023/01/08 10:20:29;;;;;;;2.92;2.45;;;16.90;57.30;;;;;;5061680;28;20233;-68
2023/01/08 10:22:55;;;;;;;4.17;2.97;;;16.90;57.40;;;;;;5062611;28;20088;-68
2023/01/08 10:25:29;;;;;;;4.28;2.55;;;16.90;57.40;;;;;;5062462;28;20031;-68
2023/01/08 10:27:59;;;;;;;4.18;2.70;;;16.80;57.40;;;;;;5062390;28;20059;-69
2023/01/08 10:30:38;;;;;;;3.83;2.50;;;16.80;57.40;;;;;;5062362;28;20033;-67
2023/01/08 10:33:10;;;;;;;3.58;2.75;;;16.80;57.50;;;;;;5062507;28;20354;-68
2023/01/08 10:35:41;;;;;;;3.55;2.50;;;16.70;57.60;;;;;;5062515;28;20035;-68
2023/01/08 10:38:22;;;;;;;3.70;2.70;;;16.70;57.80;;;;;;5062421;28;20265;-67
2023/01/08 10:40:49;;;;;;;21.80;7.20;;;16.60;57.90;;;;;;5061586;28;20016;-67
2023/01/08 10:43:20;;;;;;;20.23;9.07;;;16.50;55.70;;;;;;5062277;28;20365;-68
2023/01/08 10:46:07;;;;;;;21.98;8.32;;;16.20;54.90;;;;;;5056146;28;20025;-67
2023/01/08 10:48:54;;;;;;;13.25;5.47;;;16.20;56.10;;;;;;5058648;28;20033;-74
2023/01/08 10:51:25;;;;;;;28.55;9.10;;;16.40;57.20;;;;;;5042906;28;20021;-65
2023/01/08 10:53:53;;;;;;;13.98;6.07;;;16.50;57.10;;;;;;5058568;28;20032;-66
2023/01/08 10:56:22;;;;;;;11.25;5.38;;;16.60;57.20;;;;;;5061933;28;20044;-66
2023/01/08 10:58:48;;;;;;;15.07;5.05;;;16.70;57.00;;;;;;5061841;28;20036;-64
2023/01/08 11:01:27;;;;;;;15.07;4.72;;;16.70;56.90;;;;;;5061793;28;20039;-66
2023/01/08 11:04:03;;;;;;;14.93;5.50;;;16.80;57.00;;;;;;5061585;28;20020;-66
2023/01/08 11:06:40;;;;;;;17.67;5.38;;;16.90;57.10;;;;;;5053167;28;20037;-67
2023/01/08 11:09:22;;;;;;;17.13;5.65;;;17.00;57.00;;;;;;5045925;28;20123;-66
2023/01/08 11:11:49;;;;;;;24.17;5.65;;;17.00;57.00;;;;;;5060124;28;20036;-66
2023/01/08 11:14:34;;;;;;;13.75;4.90;;;17.10;57.10;;;;;;5055128;28;20022;-65
2023/01/08 11:17:06;;;;;;;12.65;4.90;;;17.10;57.20;;;;;;5061498;28;20045;-65
2023/01/08 11:19:33;;;;;;;27.55;5.40;;;17.20;57.40;;;;;;5061235;28;20029;-65
2023/01/08 11:22:15;;;;;;;19.45;5.95;;;17.30;57.50;;;;;;5061366;28;20052;-68
2023/01/08 11:24:42;;;;;;;19.52;4.95;;;17.20;57.50;;;;;;5061302;28;20025;-68
2023/01/08 11:27:12;;;;;;;22.50;5.55;;;17.30;57.60;;;;;;5056743;28;20048;-60
2023/01/08 11:29:52;;;;;;;15.95;5.55;;;17.30;57.80;;;;;;5060046;28;20415;-72
2023/01/08 11:32:47;;;;;;;13.73;6.07;;;17.40;58.10;;;;;;5061213;28;20027;-59
2023/01/08 11:35:20;;;;;;;12.57;4.18;;;17.40;58.30;;;;;;5061008;28;20025;-66
2023/01/08 11:37:57;;;;;;;10.52;4.95;;;17.40;58.40;;;;;;5061105;28;20017;-64
2023/01/08 11:40:50;;;;;;;19.70;6.68;;;17.40;58.40;;;;;;5061125;28;20024;-66
2023/01/08 11:44:18;;;;;;;16.13;5.68;;;17.20;58.20;;;;;;5061036;28;20024;-65
2023/01/08 11:47:02;;;;;;;14.95;5.30;;;17.20;58.20;;;;;;5019184;28;20038;-65
2023/01/08 11:49:54;;;;;;;17.10;5.03;;;17.30;58.30;;;;;;5018846;28;20164;-67
2023/01/08 11:52:51;;;;;;;27.00;5.00;;;17.30;58.20;;;;;;5058246;28;20088;-66
2023/01/08 11:55:23;;;;;;;17.48;6.45;;;17.20;58.20;;;;;;5060774;28;20277;-66
2023/01/08 11:58:21;;;;;;;12.02;4.47;;;17.20;58.20;;;;;;5060948;28;20027;-65
2023/01/08 12:00:56;;;;;;;15.20;5.70;;;17.20;58.40;;;;;;5060716;28;20009;-66
2023/01/08 12:03:44;;;;;;;19.20;4.70;;;17.20;58.40;;;;;;5061151;28;20066;-66
2023/01/08 12:06:27;;;;;;;10.55;4.65;;;17.30;58.40;;;;;;5059579;28;20069;-66
2023/01/08 12:09:06;;;;;;;13.48;5.38;;;17.30;58.50;;;;;;5060796;28;20198;-66
2023/01/08 12:11:42;;;;;;;16.60;4.53;;;17.30;58.70;;;;;;5060800;28;20043;-65
2023/01/08 12:14:34;;;;;;;21.27;5.63;;;17.30;59.00;;;;;;5060800;28;20021;-65
2023/01/08 12:17:03;;;;;;;22.85;5.82;;;17.30;59.00;;;;;;5060551;28;20040;-65
2023/01/08 12:19:45;;;;;;;14.77;5.25;;;17.30;59.10;;;;;;5060802;28;20028;-65
2023/01/08 12:22:34;;;;;;;20.65;5.32;;;17.30;59.10;;;;;;5051801;28;20397;-66
2023/01/08 12:25:27;;;;;;;14.23;4.57;;;17.30;59.30;;;;;;5030064;28;20186;-68
2023/01/08 12:27:56;;;;;;;17.95;6.03;;;17.30;58.80;;;;;;5044607;28;20053;-68
2023/01/08 12:30:25;;;;;;;24.80;5.93;;;17.40;59.40;;;;;;5060664;28;20033;-66
2023/01/08 12:33:12;;;;;;;40.00;6.35;;;17.40;59.40;;;;;;5060700;28;20032;-65
2023/01/08 12:35:43;;;;;;;19.63;6.28;;;17.40;59.50;;;;;;5058997;28;20020;-65
2023/01/08 12:38:20;;;;;;;28.00;6.03;;;17.40;59.40;;;;;;5060731;28;20021;-67
2023/01/08 12:40:54;;;;;;;39.03;7.25;;;17.40;59.40;;;;;;5060706;28;20020;-66
2023/01/08 12:43:30;;;;;;;33.67;9.05;;;17.40;59.40;;;;;;5061464;28;20312;-66
2023/01/08 12:45:59;;;;;;;31.90;6.65;;;17.40;60.00;;;;;;5064121;28;20017;-66
2023/01/08 12:48:32;;;;;;;31.88;6.97;;;17.40;59.40;;;;;;5063210;28;20021;-66
2023/01/08 12:51:16;;;;;;;31.00;6.63;;;17.40;59.50;;;;;;5063947;28;20093;-66
2023/01/08 12:53:48;;;;;;;32.53;6.10;;;17.30;59.40;;;;;;5064202;28;20013;-65
2023/01/08 12:56:39;;;;;;;28.42;6.30;;;17.40;59.40;;;;;;5062482;28;20228;-66
2023/01/08 12:59:37;;;;;;;29.45;7.03;;;17.30;59.40;;;;;;5064152;28;20032;-65
2023/01/08 13:02:12;;;;;;;38.47;8.10;;;17.30;59.60;;;;;;5064045;28;20028;-64
2023/01/08 13:04:43;;;;;;;32.58;8.10;;;17.30;59.70;;;;;;5064061;28;20044;-64